Lake Park, Georgia
Current Conditions -  °F | °C
As of 12:53 PM on Saturday 25 Oct 2014 (Local Time) from KVLD Reporting Station
Clear Clear  
Wind Chill: 76°   Ceiling: Unl
Heat Index: 76°   Visibility: 10mi
Dew Point: 43°   Wind: 0mph
Humidity: 31%   Direction: NA
Pressure: 30.03"   Gusts: NA
Location:  30.68°N, 83.18°W
Report Text: KVLD 251653Z 00000KT 10SM CLR 24/06 A3003 RMK AO2 SLP174 T02440061
Loading
Personal Weather Stations






























Interactive Weather Map
Tropical Storm Tracking
New forecast layout! Learn more

10-Day Weather Forecast

Advertisements
Track Severe Weather on mobile